Sapp, Missouri
Current Conditions -  °F | °C
As of 11:06 AM on Friday 24 Oct 2014 (Local Time) from KCOU Reporting Station
Overcast Overcast  
Wind Chill: 18°   Ceiling: 1100
Heat Index: 18°   Visibility: 9mi
Dew Point: 16°   Wind: 7mph
Humidity: 87%   Direction: 180°S
Pressure: 30.11"   Gusts: NA
Location:  38.895°N, 92.3958°W
Report Text: KCOU 241606Z 18006KT 9SM BKN011 OVC022 18/16 A3011 RMK AO2 T01780156
Loading
Personal Weather Stations






























Interactive Weather Map
Tropical Storm Tracking
New forecast layout! Learn more

10-Day Weather Forecast

Advertisements
Track Severe Weather on mobile